Terminal Aerodrome Forecast
Issued by NWS Paducah, KY

Home | Current Version | Previous Version | Text Only | Print | Product List | Glossary On
Versions: 1 2 3 4 5 6 7 8 9 10 11 12 13
000
FTUS43 KPAH 251700
TAFEVV
TAF
KEVV 251720Z 2518/2618 VRB04KT 5SM -RA BR SCT008 OVC020
     FM260100 32012G22KT 6SM -RASN BR OVC010
     FM260400 33013G23KT P6SM BKN015=

USA.gov is the U.S. government's official web portal to all federal, state and local government web resources and services.